Time;durP1;ratioP1;P1;durP2;ratioP2;P2;SDS_P1;SDS_P2;PMS_P1;PMS_P2;Temp;Humidity;BMP_temperature;BMP_pressure;BME280_temperature;BME280_humidity;BME280_pressure;Samples;Min_cycle;Max_cycle;Signal;HPM_P1;HPM_P2
2022/05/06 00:01:01;;;;;;;7.95;3.13;;;8.30;73.30;;;;;;5096937;28;20355;-85
2022/05/06 00:03:27;;;;;;;7.07;3.33;;;8.20;73.50;;;;;;5095412;28;20073;-85
2022/05/06 00:05:53;;;;;;;5.65;3.33;;;8.20;73.90;;;;;;5095296;28;20035;-85
2022/05/06 00:08:18;;;;;;;6.68;3.20;;;8.20;73.70;;;;;;5095372;28;20455;-85
2022/05/06 00:10:44;;;;;;;5.45;3.20;;;8.20;73.80;;;;;;5096535;28;20020;-85
2022/05/06 00:13:10;;;;;;;12.35;3.00;;;8.10;73.90;;;;;;5096311;28;20470;-85
2022/05/06 00:15:36;;;;;;;7.57;3.40;;;8.10;74.30;;;;;;5095299;28;20056;-85
2022/05/06 00:18:03;;;;;;;5.05;3.20;;;8.10;74.70;;;;;;5095203;28;20024;-85
2022/05/06 00:20:28;;;;;;;3.60;2.90;;;8.10;74.80;;;;;;5095179;28;20028;-85
2022/05/06 00:22:57;;;;;;;4.65;3.20;;;8.00;75.20;;;;;;5096164;28;20024;-83
2022/05/06 00:25:23;;;;;;;6.72;3.50;;;8.00;74.90;;;;;;5094226;28;20509;-83
2022/05/06 00:27:49;;;;;;;6.07;3.28;;;7.90;77.00;;;;;;5095885;28;20020;-83
2022/05/06 00:30:15;;;;;;;5.20;3.03;;;7.90;76.80;;;;;;5095874;28;20073;-83
2022/05/06 00:32:41;;;;;;;4.43;3.25;;;7.80;76.40;;;;;;5095783;28;20477;-83
2022/05/06 00:35:07;;;;;;;8.65;3.25;;;7.70;77.20;;;;;;5095713;28;20020;-83
2022/05/06 00:37:33;;;;;;;7.05;3.60;;;7.50;78.00;;;;;;5094430;28;20115;-83
2022/05/06 00:39:59;;;;;;;5.50;3.50;;;7.40;78.80;;;;;;5095773;28;20063;-83
2022/05/06 00:42:24;;;;;;;6.78;3.50;;;7.30;78.60;;;;;;5094192;28;20462;-83
2022/05/06 00:44:50;;;;;;;7.90;3.95;;;7.20;81.00;;;;;;5094118;28;20469;-83
2022/05/06 00:47:20;;;;;;;6.07;3.83;;;7.20;81.10;;;;;;5095463;28;20098;-83
2022/05/06 00:49:46;;;;;;;6.40;3.87;;;7.30;80.90;;;;;;5094129;28;20020;-83
2022/05/06 00:52:12;;;;;;;8.35;3.55;;;7.20;80.90;;;;;;5094166;28;20554;-83
2022/05/06 00:54:40;;;;;;;6.35;3.72;;;7.30;81.10;;;;;;5095210;28;20019;-83
2022/05/06 00:57:07;;;;;;;7.05;3.30;;;7.40;81.30;;;;;;5095262;28;20039;-83
2022/05/06 01:00:17;;;;;;;9.15;3.88;;;7.40;80.60;;;;;;5093912;28;20035;-83
2022/05/06 01:02:20;;;;;;;8.43;3.75;;;7.40;81.10;;;;;;5095005;28;20378;-83
2022/05/06 01:04:46;;;;;;;10.05;3.30;;;7.30;81.60;;;;;;5093952;28;20028;-83
2022/05/06 01:07:13;;;;;;;8.05;3.85;;;7.40;81.40;;;;;;5094013;28;20027;-84
2022/05/06 01:09:39;;;;;;;4.45;3.30;;;7.50;82.40;;;;;;5095219;28;20089;-85
2022/05/06 01:12:06;;;;;;;6.22;3.45;;;7.40;81.20;;;;;;5094155;28;20020;-85
2022/05/06 01:14:33;;;;;;;7.03;3.58;;;7.40;82.30;;;;;;5095121;28;20032;-85
2022/05/06 01:16:59;;;;;;;6.68;3.60;;;7.50;82.70;;;;;;5093870;28;20055;-83
2022/05/06 01:19:25;;;;;;;4.65;3.25;;;7.50;83.50;;;;;;5093587;28;20059;-83
2022/05/06 01:21:55;;;;;;;5.05;3.10;;;7.40;82.70;;;;;;5093568;28;20374;-83
2022/05/06 01:24:21;;;;;;;6.80;3.22;;;7.40;83.30;;;;;;5093299;28;20139;-84
2022/05/06 01:26:53;;;;;;;6.85;3.10;;;7.30;84.00;;;;;;5093598;28;20020;-84
2022/05/06 01:29:23;;;;;;;5.07;3.35;;;7.30;84.20;;;;;;5093521;28;20048;-83
2022/05/06 01:31:51;;;;;;;7.38;3.25;;;7.10;84.50;;;;;;5094634;28;20017;-84
2022/05/06 01:34:18;;;;;;;3.67;2.80;;;7.00;84.60;;;;;;5092661;28;20020;-83
2022/05/06 01:36:48;;;;;;;7.35;3.25;;;7.00;84.10;;;;;;5094660;28;20458;-84
2022/05/06 01:39:18;;;;;;;4.85;3.15;;;6.80;85.30;;;;;;5094883;28;20020;-84
2022/05/06 01:41:51;;;;;;;5.55;3.03;;;6.70;86.40;;;;;;5094557;28;20103;-84
2022/05/06 01:44:20;;;;;;;5.88;3.55;;;6.70;87.50;;;;;;5093391;28;20024;-84
2022/05/06 01:46:47;;;;;;;6.05;3.08;;;6.60;86.50;;;;;;5094537;28;20081;-84
2022/05/06 01:49:15;;;;;;;3.88;2.92;;;6.50;87.80;;;;;;5094557;28;20031;-84
2022/05/06 01:51:43;;;;;;;5.78;3.60;;;6.40;87.50;;;;;;5093189;28;20482;-83
2022/05/06 01:54:09;;;;;;;4.43;3.15;;;6.30;90.20;;;;;;5093224;28;20020;-84
2022/05/06 01:56:35;;;;;;;5.50;3.40;;;6.30;89.50;;;;;;5093149;28;20020;-84
2022/05/06 01:59:01;;;;;;;8.00;3.25;;;6.30;88.90;;;;;;5094702;28;20034;-84
2022/05/06 02:01:29;;;;;;;4.97;3.05;;;6.20;90.40;;;;;;5093071;28;20073;-84
2022/05/06 02:06:39;;;;;;;4.97;2.75;;;6.10;90.60;;;;;;5094861;28;20035;-85
2022/05/06 02:09:04;;;;;;;5.10;3.10;;;6.00;91.00;;;;;;5092890;28;20020;-84
2022/05/06 02:11:30;;;;;;;8.80;3.50;;;6.00;92.30;;;;;;5094421;28;20024;-84
2022/05/06 02:13:56;;;;;;;7.00;3.88;;;6.20;94.20;;;;;;5093011;28;20031;-84
2022/05/06 02:16:22;;;;;;;4.68;3.50;;;6.30;95.00;;;;;;5092856;28;20118;-84
2022/05/06 02:18:48;;;;;;;5.53;3.50;;;6.30;94.00;;;;;;5092971;28;20055;-84
2022/05/06 02:21:13;;;;;;;4.47;3.20;;;6.30;93.70;;;;;;5092822;28;20024;-85
2022/05/06 02:23:39;;;;;;;4.63;3.25;;;6.30;94.00;;;;;;5094085;28;20389;-85
2022/05/06 02:26:05;;;;;;;6.80;3.50;;;6.20;93.60;;;;;;5092665;28;20502;-85
2022/05/06 02:28:31;;;;;;;5.90;3.40;;;6.20;93.50;;;;;;5092689;28;20020;-84
2022/05/06 02:33:43;;;;;;;7.85;3.33;;;6.00;93.80;;;;;;5094067;28;20485;-84
2022/05/06 02:36:09;;;;;;;7.82;3.28;;;5.90;95.40;;;;;;5093781;28;20443;-84
2022/05/06 02:38:35;;;;;;;6.35;3.88;;;5.90;96.60;;;;;;5092602;28;20020;-84
2022/05/06 02:41:01;;;;;;;7.45;3.85;;;5.90;98.40;;;;;;5092836;28;20524;-84
2022/05/06 02:43:26;;;;;;;5.20;3.70;;;6.00;98.40;;;;;;5093733;28;20032;-84
2022/05/06 02:45:52;;;;;;;11.13;3.53;;;6.00;98.10;;;;;;5092981;28;20110;-85
2022/05/06 02:48:19;;;;;;;6.00;3.67;;;6.10;97.40;;;;;;5097894;28;20020;-84
2022/05/06 02:50:44;;;;;;;6.78;3.88;;;6.20;98.70;;;;;;5096645;28;20093;-84
2022/05/06 02:53:10;;;;;;;6.50;3.70;;;6.20;98.50;;;;;;5097830;28;20477;-84
2022/05/06 02:55:36;;;;;;;8.57;3.65;;;6.40;98.50;;;;;;5097749;28;20032;-84
2022/05/06 02:58:04;;;;;;;6.95;3.70;;;6.60;98.80;;;;;;5097748;28;20028;-84
2022/05/06 03:00:30;;;;;;;6.22;3.60;;;6.80;99.10;;;;;;5063329;28;20039;-84
2022/05/06 03:02:57;;;;;;;10.15;3.60;;;7.00;98.00;;;;;;5096309;28;20028;-84
2022/05/06 03:05:26;;;;;;;3.75;3.20;;;7.20;97.90;;;;;;5096322;28;20028;-84
2022/05/06 03:07:52;;;;;;;7.47;3.95;;;7.20;97.70;;;;;;5095841;28;20023;-84
2022/05/06 03:10:18;;;;;;;5.70;3.95;;;7.30;97.90;;;;;;5097355;28;20027;-84
2022/05/06 03:12:44;;;;;;;5.70;3.83;;;7.40;97.80;;;;;;5079428;28;20028;-85
2022/05/06 03:15:11;;;;;;;6.07;3.95;;;7.50;97.80;;;;;;5097635;28;20063;-84
2022/05/06 03:17:37;;;;;;;5.68;3.65;;;7.60;97.10;;;;;;5095907;28;20501;-83
2022/05/06 03:20:08;;;;;;;6.82;3.75;;;7.70;97.10;;;;;;5097086;28;20024;-84
2022/05/06 03:22:40;;;;;;;5.80;3.47;;;7.90;96.90;;;;;;5079771;28;20032;-84
2022/05/06 03:25:08;;;;;;;6.03;3.42;;;8.00;96.60;;;;;;5097039;28;20135;-83
2022/05/06 03:30:18;;;;;;;6.22;3.65;;;8.10;96.30;;;;;;5096231;28;20397;-84
2022/05/06 03:32:44;;;;;;;4.90;3.08;;;8.20;96.30;;;;;;5078918;28;20023;-83
2022/05/06 03:35:09;;;;;;;8.82;4.07;;;8.20;96.30;;;;;;5095315;28;20032;-83
2022/05/06 03:37:38;;;;;;;8.63;3.92;;;8.40;96.50;;;;;;5096718;28;20039;-82
2022/05/06 03:40:05;;;;;;;5.47;3.58;;;8.50;95.90;;;;;;5095152;28;20074;-84
2022/05/06 03:42:31;;;;;;;10.57;4.20;;;8.50;96.00;;;;;;5078672;28;20024;-84
2022/05/06 03:44:58;;;;;;;7.93;3.80;;;8.70;95.60;;;;;;5096350;28;20465;-84
2022/05/06 03:47:24;;;;;;;7.47;4.00;;;8.70;95.20;;;;;;5096556;28;20028;-83
2022/05/06 03:51:20;;;;;;;7.13;3.97;;;8.80;95.20;;;;;;5094818;28;20024;-83
2022/05/06 03:52:35;;;;;;;4.47;3.70;;;9.10;94.80;;;;;;5096442;28;20027;-84
2022/05/06 03:55:01;;;;;;;8.55;3.85;;;9.10;94.50;;;;;;5095349;28;20032;-84
2022/05/06 03:57:27;;;;;;;8.35;4.10;;;9.20;94.70;;;;;;5094545;28;20024;-84
2022/05/06 03:59:54;;;;;;;7.68;3.72;;;9.30;94.50;;;;;;5095114;28;20047;-84
2022/05/06 04:02:21;;;;;;;7.53;3.90;;;9.30;94.20;;;;;;5095165;28;20052;-84
2022/05/06 04:04:53;;;;;;;7.10;4.40;;;9.50;94.30;;;;;;5096412;28;20032;-84
2022/05/06 04:07:19;;;;;;;6.35;3.83;;;9.60;94.40;;;;;;5095117;28;20428;-84
2022/05/06 04:09:44;;;;;;;4.78;3.63;;;9.70;94.40;;;;;;5078011;28;20024;-84
2022/05/06 04:12:11;;;;;;;6.57;3.97;;;9.80;94.10;;;;;;5094909;28;20020;-84
2022/05/06 04:14:36;;;;;;;8.20;3.70;;;9.80;94.40;;;;;;5095700;28;20024;-84
2022/05/06 04:17:03;;;;;;;6.05;3.80;;;10.00;94.00;;;;;;5094403;28;20439;-84
2022/05/06 04:19:30;;;;;;;6.53;3.83;;;10.10;94.00;;;;;;5078212;28;20111;-84
2022/05/06 04:24:40;;;;;;;5.65;3.72;;;10.40;93.60;;;;;;5095752;28;20118;-84
2022/05/06 04:27:06;;;;;;;5.22;3.80;;;10.50;93.00;;;;;;5094322;28;20047;-84
2022/05/06 04:29:32;;;;;;;5.30;3.83;;;10.60;92.90;;;;;;5077956;28;20024;-84
2022/05/06 04:31:58;;;;;;;4.97;3.92;;;10.70;92.00;;;;;;5094596;28;20448;-84
2022/05/06 04:34:24;;;;;;;6.45;3.65;;;10.80;91.20;;;;;;5095664;28;20062;-84
2022/05/06 04:36:50;;;;;;;7.57;4.35;;;11.20;89.60;;;;;;5094288;28;20023;-84
2022/05/06 04:39:17;;;;;;;6.55;4.38;;;11.50;85.80;;;;;;5077521;28;20036;-84
2022/05/06 04:41:45;;;;;;;11.18;4.45;;;11.70;86.40;;;;;;5093921;28;20020;-84
2022/05/06 04:44:11;;;;;;;6.20;4.05;;;11.80;83.80;;;;;;5094419;28;20020;-83
2022/05/06 04:46:36;;;;;;;6.20;3.65;;;12.10;83.60;;;;;;5094841;28;20027;-84
2022/05/06 04:49:02;;;;;;;6.50;4.10;;;12.20;80.30;;;;;;5093941;28;20051;-85
2022/05/06 04:51:28;;;;;;;8.77;3.97;;;12.30;77.20;;;;;;5060192;28;20030;-84
2022/05/06 04:53:55;;;;;;;4.85;3.42;;;12.40;77.70;;;;;;5093841;28;20074;-84
2022/05/06 04:56:22;;;;;;;8.70;3.83;;;12.50;78.60;;;;;;5095316;28;20097;-84
2022/05/06 04:58:48;;;;;;;7.70;4.07;;;12.60;78.00;;;;;;5077919;28;20378;-84
2022/05/06 05:01:14;;;;;;;8.80;4.05;;;12.70;75.70;;;;;;5093629;28;20020;-84
2022/05/06 05:03:40;;;;;;;5.60;3.78;;;12.80;75.40;;;;;;5093248;28;20034;-84
2022/05/06 05:06:07;;;;;;;7.75;3.60;;;12.90;73.80;;;;;;5060648;28;20035;-84
2022/05/06 05:08:34;;;;;;;7.45;3.60;;;13.00;73.30;;;;;;5093200;28;20386;-84
2022/05/06 05:11:03;;;;;;;5.18;3.80;;;13.10;72.70;;;;;;5094570;28;20029;-84
2022/05/06 05:13:34;;;;;;;57.33;5.68;;;13.10;72.70;;;;;;5077203;28;20467;-84
2022/05/06 05:15:59;;;;;;;6.03;3.13;;;13.20;72.00;;;;;;5092823;28;20455;-84
2022/05/06 05:18:25;;;;;;;8.60;3.90;;;13.30;71.80;;;;;;5076980;28;20052;-84
2022/05/06 05:20:51;;;;;;;6.57;3.50;;;13.30;71.00;;;;;;5092991;28;20036;-84
2022/05/06 05:23:17;;;;;;;6.95;3.53;;;13.40;70.90;;;;;;5093042;28;20055;-84
2022/05/06 05:25:43;;;;;;;7.80;3.90;;;13.40;71.80;;;;;;5092885;28;20048;-84
2022/05/06 05:28:09;;;;;;;7.30;3.40;;;13.50;72.20;;;;;;5093569;28;20020;-84
2022/05/06 05:30:35;;;;;;;10.23;4.22;;;13.50;72.50;;;;;;5092940;28;20118;-84
2022/05/06 05:33:01;;;;;;;5.95;3.47;;;13.60;70.90;;;;;;5093048;28;20111;-86
2022/05/06 05:35:29;;;;;;;5.63;3.83;;;13.70;72.40;;;;;;5094158;28;20588;-85
2022/05/06 05:37:57;;;;;;;6.53;3.70;;;13.80;73.40;;;;;;5094115;28;20356;-86
2022/05/06 05:40:23;;;;;;;7.35;3.70;;;13.80;73.00;;;;;;5092763;28;20031;-86
2022/05/06 05:42:49;;;;;;;8.48;3.72;;;13.90;72.70;;;;;;5092751;28;20024;-85
2022/05/06 17:58:10;;;;;;;7.63;3.20;;;13.50;55.80;;;;;;5112541;27;20361;-86
2022/05/06 18:03:22;;;;;;;6.93;3.50;;;12.90;56.10;;;;;;5112460;28;20050;-89
2022/05/06 18:05:48;;;;;;;4.43;3.22;;;12.80;56.60;;;;;;5111072;28;20024;-88
2022/05/06 18:08:14;;;;;;;5.00;3.30;;;12.80;57.20;;;;;;5109783;28;20070;-88
2022/05/06 18:10:40;;;;;;;7.90;3.10;;;12.80;57.30;;;;;;5109110;28;20073;-88
2022/05/06 18:13:06;;;;;;;7.35;3.35;;;12.70;57.50;;;;;;5110916;28;20020;-89
2022/05/06 18:15:32;;;;;;;6.78;3.47;;;12.60;57.90;;;;;;5110917;28;20054;-87
2022/05/06 18:17:58;;;;;;;11.55;3.50;;;12.60;57.80;;;;;;5109495;28;20439;-88
2022/05/06 18:20:24;;;;;;;6.63;3.60;;;12.60;58.30;;;;;;5109404;28;20066;-88
2022/05/06 18:22:50;;;;;;;11.27;4.05;;;12.60;58.40;;;;;;5109422;28;20032;-87
2022/05/06 18:25:15;;;;;;;14.48;3.60;;;12.50;58.40;;;;;;5108586;28;20474;-88
2022/05/06 18:27:43;;;;;;;7.80;3.15;;;12.50;58.70;;;;;;5108453;28;20034;-88
2022/05/06 18:30:11;;;;;;;6.53;3.05;;;12.50;59.00;;;;;;5108313;28;20024;-87
2022/05/06 18:35:20;;;;;;;4.88;2.67;;;12.40;59.20;;;;;;5109650;28;20039;-88
2022/05/06 18:37:46;;;;;;;6.55;3.33;;;12.40;59.40;;;;;;5108154;28;20032;-87
2022/05/06 18:40:12;;;;;;;12.50;3.45;;;12.30;59.70;;;;;;5110013;28;20054;-87
2022/05/06 18:42:38;;;;;;;8.73;3.50;;;12.20;60.00;;;;;;5110386;28;20024;-88
2022/05/06 18:45:06;;;;;;;7.40;3.17;;;12.20;60.10;;;;;;5110121;28;20111;-86
2022/05/06 18:47:32;;;;;;;7.28;3.35;;;12.10;60.60;;;;;;5110036;28;20109;-87
2022/05/06 18:49:58;;;;;;;7.30;3.13;;;12.10;60.40;;;;;;5111218;28;20062;-86
2022/05/06 18:52:23;;;;;;;9.52;3.95;;;12.10;60.70;;;;;;5109905;28;20073;-86
2022/05/06 18:54:49;;;;;;;5.07;3.20;;;11.90;61.00;;;;;;5109832;28;20118;-87
2022/05/06 18:57:16;;;;;;;4.57;2.83;;;11.90;61.00;;;;;;5109455;28;20134;-86
2022/05/06 18:59:42;;;;;;;11.02;3.15;;;11.90;60.90;;;;;;5110870;28;20024;-87
2022/05/06 19:02:07;;;;;;;5.45;3.38;;;11.80;61.00;;;;;;5109559;28;20020;-87
2022/05/06 19:04:36;;;;;;;8.68;3.28;;;11.80;61.40;;;;;;5111041;28;20028;-88
2022/05/06 19:07:02;;;;;;;3.50;2.83;;;11.80;61.70;;;;;;5109527;28;20024;-86
2022/05/06 19:09:28;;;;;;;5.32;3.00;;;11.70;61.70;;;;;;5097488;28;20048;-87
2022/05/06 19:11:55;;;;;;;5.43;3.42;;;11.70;61.70;;;;;;5096063;28;20024;-86
2022/05/06 19:14:20;;;;;;;11.73;3.35;;;11.60;61.80;;;;;;5097010;28;20023;-86
2022/05/06 19:16:46;;;;;;;7.15;3.40;;;11.60;62.00;;;;;;5096030;28;20115;-87
2022/05/06 19:19:12;;;;;;;6.35;3.35;;;11.60;62.30;;;;;;5096037;28;20016;-87
2022/05/06 19:27:06;;;;;;;5.05;3.58;;;11.50;62.80;;;;;;5097013;28;20137;-88
2022/05/06 19:29:32;;;;;;;8.70;4.30;;;11.40;63.60;;;;;;5095985;28;20130;-87
2022/05/06 19:31:58;;;;;;;5.65;4.03;;;11.40;63.00;;;;;;5095648;28;20028;-88
2022/05/06 19:34:24;;;;;;;6.65;4.55;;;11.40;63.20;;;;;;5095267;28;20038;-88
2022/05/06 19:36:50;;;;;;;10.20;4.30;;;11.30;63.30;;;;;;5095426;28;20185;-88
2022/05/06 19:39:16;;;;;;;9.55;5.00;;;11.30;63.30;;;;;;5112771;28;20020;-88
2022/05/06 19:41:41;;;;;;;9.32;4.93;;;11.30;63.30;;;;;;5096635;28;20474;-87
2022/05/06 19:44:07;;;;;;;9.95;5.45;;;11.20;63.30;;;;;;5095502;28;20028;-88
2022/05/06 19:46:33;;;;;;;10.70;5.90;;;11.20;63.60;;;;;;5096602;28;20024;-88
2022/05/06 19:48:59;;;;;;;7.55;6.15;;;11.20;64.00;;;;;;5095386;28;20050;-87
2022/05/06 19:54:09;;;;;;;12.57;6.15;;;11.20;64.30;;;;;;5096670;28;20027;-90
2022/05/06 19:56:36;;;;;;;11.35;6.80;;;11.10;63.90;;;;;;5095012;28;20052;-87
2022/05/06 19:59:05;;;;;;;10.38;5.82;;;11.20;64.00;;;;;;5096116;28;20024;-87
2022/05/06 20:01:34;;;;;;;10.20;6.25;;;11.20;64.10;;;;;;5096312;28;20020;-87
2022/05/06 20:04:02;;;;;;;9.13;6.10;;;11.10;64.60;;;;;;5096064;28;20086;-88
2022/05/06 20:06:29;;;;;;;11.60;6.60;;;11.10;64.70;;;;;;5094968;28;20028;-86
2022/05/06 20:08:54;;;;;;;9.07;5.72;;;11.10;64.80;;;;;;5093807;28;20083;-87
2022/05/06 20:11:20;;;;;;;10.13;5.60;;;11.20;64.70;;;;;;5094769;28;20054;-86
2022/05/06 20:13:46;;;;;;;8.20;4.78;;;11.20;64.90;;;;;;5093234;28;20110;-85
2022/05/06 20:16:13;;;;;;;7.40;5.10;;;11.20;65.00;;;;;;5094234;28;20028;-85
2022/05/06 20:18:39;;;;;;;8.07;4.53;;;11.20;65.30;;;;;;5094665;28;20462;-87
2022/05/06 20:21:05;;;;;;;8.52;5.00;;;11.20;65.60;;;;;;5092942;28;20025;-90
2022/05/06 20:23:30;;;;;;;10.50;5.15;;;11.20;66.10;;;;;;5094339;28;20138;-90
2022/05/06 20:25:56;;;;;;;10.07;4.95;;;11.30;66.10;;;;;;5094844;28;20486;-90
2022/05/06 20:28:22;;;;;;;7.05;4.80;;;11.30;66.50;;;;;;5094579;28;20043;-90
2022/05/06 20:30:48;;;;;;;8.82;5.70;;;11.30;66.00;;;;;;5094856;28;20059;-90
2022/05/06 20:33:13;;;;;;;8.75;5.40;;;11.40;66.40;;;;;;5093674;28;20020;-90
2022/05/06 20:35:40;;;;;;;13.52;5.70;;;11.40;66.40;;;;;;5094020;28;20099;-90
2022/05/06 20:38:06;;;;;;;8.05;5.18;;;11.40;66.60;;;;;;5094408;28;20447;-90
2022/05/06 20:40:32;;;;;;;12.10;5.60;;;11.40;66.60;;;;;;5094402;28;20115;-90
2022/05/06 20:42:58;;;;;;;10.07;5.85;;;11.40;66.40;;;;;;5094558;28;20020;-90
2022/05/06 20:45:24;;;;;;;9.50;5.80;;;11.40;66.30;;;;;;5094859;28;20492;-90
2022/05/06 20:47:50;;;;;;;8.02;4.93;;;11.50;66.50;;;;;;5094402;28;20028;-90
2022/05/06 20:50:17;;;;;;;10.75;5.70;;;11.40;66.00;;;;;;5095447;28;20362;-88
2022/05/06 20:52:44;;;;;;;10.75;5.38;;;11.40;66.40;;;;;;5094046;28;20031;-88
2022/05/06 20:55:10;;;;;;;12.80;6.15;;;11.40;66.30;;;;;;5095497;28;20074;-88
2022/05/06 21:00:21;;;;;;;13.02;5.55;;;11.50;66.60;;;;;;5095771;28;20027;-88
2022/05/06 21:02:47;;;;;;;11.52;5.55;;;11.40;66.40;;;;;;5095059;28;20024;-88
2022/05/06 21:05:14;;;;;;;9.45;5.43;;;11.40;67.20;;;;;;5093994;28;20017;-88
2022/05/06 21:07:40;;;;;;;9.18;5.15;;;11.40;66.60;;;;;;5093932;28;20492;-88
2022/05/06 21:13:32;;;;;;;11.45;4.95;;;11.40;66.90;;;;;;5095285;28;20122;-88
2022/05/06 21:15:40;;;;;;;7.97;4.93;;;11.40;66.70;;;;;;5089112;28;20040;-88
2022/05/06 21:18:09;;;;;;;10.48;5.53;;;11.40;66.60;;;;;;5093759;28;20077;-88
2022/05/06 21:20:36;;;;;;;11.57;4.68;;;11.40;66.40;;;;;;5094934;28;20045;-88
2022/05/06 21:23:01;;;;;;;8.50;4.80;;;11.50;66.40;;;;;;5094856;28;20090;-88
2022/05/06 21:25:28;;;;;;;7.45;4.78;;;11.40;66.70;;;;;;5094221;28;20409;-88
2022/05/06 21:27:57;;;;;;;9.55;4.70;;;11.40;66.60;;;;;;5093912;28;20053;-88
2022/05/06 21:30:24;;;;;;;6.88;4.68;;;11.40;66.30;;;;;;5093612;28;20110;-88
2022/05/06 21:32:51;;;;;;;6.95;4.90;;;11.40;66.50;;;;;;5094395;28;20089;-88
2022/05/06 21:35:17;;;;;;;10.82;4.75;;;11.50;66.50;;;;;;5094647;28;20024;-88
2022/05/06 21:37:43;;;;;;;9.85;5.38;;;11.40;66.40;;;;;;5093626;28;20050;-89
2022/05/06 21:40:10;;;;;;;9.95;4.80;;;11.40;66.40;;;;;;5093913;28;20462;-90
2022/05/06 21:42:37;;;;;;;11.23;5.22;;;11.40;66.80;;;;;;5093674;28;20115;-90
2022/05/06 21:45:03;;;;;;;13.23;5.80;;;11.40;66.70;;;;;;5094838;28;20047;-90
2022/05/06 21:47:30;;;;;;;11.82;5.18;;;11.40;66.70;;;;;;5093294;28;20063;-90
2022/05/06 21:49:56;;;;;;;9.18;5.43;;;11.30;66.80;;;;;;5093536;28;20485;-89
2022/05/06 21:52:22;;;;;;;11.93;5.35;;;11.30;67.00;;;;;;5093171;28;20095;-90
2022/05/06 21:54:49;;;;;;;8.32;4.18;;;11.20;67.30;;;;;;5093464;28;20094;-90
2022/05/06 21:57:15;;;;;;;10.80;4.97;;;11.20;67.40;;;;;;5093479;28;20079;-90
2022/05/06 21:59:46;;;;;;;7.78;4.55;;;11.20;67.50;;;;;;5093676;28;20462;-89
2022/05/06 22:02:12;;;;;;;;;;;11.20;67.60;;;;;;5094791;28;20024;-90
2022/05/06 22:04:39;;;;;;;8.60;4.85;;;11.10;67.90;;;;;;5093323;28;19904;-89
2022/05/06 22:07:05;;;;;;;9.52;5.50;;;11.10;68.20;;;;;;5093100;28;20114;-91
2022/05/06 22:09:31;;;;;;;8.30;4.47;;;11.00;68.10;;;;;;5093081;28;20478;-89
2022/05/06 22:11:57;;;;;;;9.82;4.85;;;11.00;68.00;;;;;;5093164;28;20054;-90
2022/05/06 22:14:24;;;;;;;7.60;4.60;;;10.90;68.10;;;;;;5093327;28;20447;-89
2022/05/06 22:16:50;;;;;;;9.70;4.30;;;10.90;68.80;;;;;;5093078;28;20386;-89
2022/05/06 22:19:16;;;;;;;11.85;4.93;;;10.80;68.30;;;;;;5093264;28;20050;-91
2022/05/06 22:21:42;;;;;;;11.05;5.10;;;10.80;68.10;;;;;;5093366;28;20370;-91
2022/05/06 22:24:08;;;;;;;9.52;4.85;;;10.70;68.20;;;;;;5092961;28;20016;-92
2022/05/06 22:26:34;;;;;;;9.05;4.88;;;10.60;68.20;;;;;;5093269;28;20181;-91
2022/05/06 22:29:00;;;;;;;8.25;4.85;;;10.60;68.00;;;;;;5094366;28;20027;-91
2022/05/06 22:31:26;;;;;;;7.65;4.60;;;10.60;67.60;;;;;;5093055;28;20035;-91
2022/05/06 22:36:36;;;;;;;9.20;4.95;;;10.50;67.70;;;;;;5094248;28;20026;-91
2022/05/06 22:39:02;;;;;;;9.77;4.65;;;10.40;67.60;;;;;;5092974;28;20020;-91
2022/05/06 22:46:57;;;;;;;7.38;4.20;;;10.30;67.20;;;;;;5098255;28;20030;-90
2022/05/06 22:49:23;;;;;;;8.05;4.00;;;10.20;66.80;;;;;;5097770;28;20471;-89
2022/05/06 22:51:49;;;;;;;7.40;4.20;;;10.20;66.20;;;;;;5096683;28;20039;-89
2022/05/06 22:54:15;;;;;;;8.10;4.13;;;10.20;66.80;;;;;;5096744;28;20030;-89
2022/05/06 22:56:40;;;;;;;9.98;4.43;;;10.20;66.00;;;;;;5097519;28;20048;-88
2022/05/06 22:59:06;;;;;;;5.60;4.20;;;10.20;66.10;;;;;;5097864;28;20431;-89
2022/05/06 23:01:33;;;;;;;7.25;4.40;;;10.10;65.90;;;;;;5097821;28;20075;-92
2022/05/06 23:04:00;;;;;;;8.55;4.60;;;10.10;65.90;;;;;;5096365;28;20421;-89
2022/05/06 23:06:26;;;;;;;10.32;4.45;;;10.10;65.90;;;;;;5096389;28;20032;-88
2022/05/06 23:08:55;;;;;;;10.63;4.30;;;10.10;65.70;;;;;;5097296;28;20032;-88
2022/05/06 23:11:21;;;;;;;7.88;4.20;;;10.10;65.50;;;;;;5096440;28;20517;-89
2022/05/06 23:13:47;;;;;;;8.65;4.38;;;10.10;65.50;;;;;;5096273;28;20024;-90
2022/05/06 23:16:14;;;;;;;6.90;4.05;;;10.00;65.40;;;;;;5096170;28;20031;-90
2022/05/06 23:18:39;;;;;;;7.65;4.18;;;10.00;65.30;;;;;;5096283;28;20051;-90
2022/05/06 23:21:05;;;;;;;8.88;4.13;;;10.00;65.20;;;;;;5097220;28;20024;-90
2022/05/06 23:23:32;;;;;;;8.35;4.38;;;9.90;65.10;;;;;;5096012;28;20031;-89
2022/05/06 23:25:58;;;;;;;8.32;4.10;;;9.90;65.10;;;;;;5095986;28;20024;-90
2022/05/06 23:28:24;;;;;;;7.22;4.30;;;9.90;65.20;;;;;;5097366;28;20042;-90
2022/05/06 23:30:49;;;;;;;8.00;4.00;;;9.90;65.50;;;;;;5096026;28;20492;-90
2022/05/06 23:33:15;;;;;;;8.00;4.50;;;9.80;65.50;;;;;;5095960;28;20024;-88
2022/05/06 23:38:25;;;;;;;16.30;4.13;;;9.60;65.70;;;;;;5097083;28;20103;-88
2022/05/06 23:40:55;;;;;;;7.18;4.80;;;9.60;65.80;;;;;;5097006;28;20430;-88
2022/05/06 23:43:24;;;;;;;11.63;4.80;;;9.50;66.50;;;;;;5095785;28;20032;-88
2022/05/06 23:45:50;;;;;;;9.32;5.15;;;9.50;66.50;;;;;;5095589;28;20102;-88
2022/05/06 23:48:17;;;;;;;8.27;4.50;;;9.40;67.00;;;;;;5095672;28;20024;-88
2022/05/06 23:50:45;;;;;;;18.60;5.53;;;9.30;67.20;;;;;;5095526;28;20453;-88
2022/05/06 23:53:11;;;;;;;7.65;4.47;;;9.30;66.90;;;;;;5096539;28;20489;-87
2022/05/06 23:55:37;;;;;;;10.88;5.10;;;9.30;67.50;;;;;;5096632;28;20032;-88
2022/05/06 23:58:03;;;;;;;12.48;5.78;;;9.20;67.80;;;;;;5095240;28;20059;-88
